Time;durP1;ratioP1;P1;durP2;ratioP2;P2;SDS_P1;SDS_P2;PMS_P1;PMS_P2;Temp;Humidity;BMP_temperature;BMP_pressure;BME280_temperature;BME280_humidity;BME280_pressure;Samples;Min_cycle;Max_cycle;Signal;HPM_P1;HPM_P2
2023/05/10 03:01:35;;;;;;;7.97;7.57;;;12.50;99.90;;;;;;5453645;23;20223;-81
2023/05/10 03:04:00;;;;;;;10.00;9.50;;;12.50;99.90;;;;;;5012075;28;20189;-83
2023/05/10 03:06:26;;;;;;;12.17;11.60;;;12.60;99.90;;;;;;4978131;28;20213;-82
2023/05/10 03:08:52;;;;;;;12.33;11.80;;;12.60;99.90;;;;;;4975519;28;20187;-82
2023/05/10 03:11:47;;;;;;;15.90;15.20;;;12.60;99.90;;;;;;4973979;28;20205;-82
2023/05/10 03:14:48;;;;;;;14.00;13.37;;;12.60;99.90;;;;;;4977463;28;20195;-82
2023/05/10 03:17:20;;;;;;;9.87;9.50;;;12.60;99.90;;;;;;5014392;23;20585;-78
2023/05/10 03:20:05;;;;;;;21.57;20.60;;;12.60;99.90;;;;;;4996528;28;20188;-78
2023/05/10 03:22:39;;;;;;;51.17;48.67;;;12.70;99.90;;;;;;4995986;28;20546;-78
2023/05/10 03:25:08;;;;;;;36.07;34.37;;;12.70;99.90;;;;;;4996408;28;20180;-78
2023/05/10 03:27:36;;;;;;;10.80;10.40;;;12.70;99.90;;;;;;4993627;28;20219;-78
2023/05/10 03:30:02;;;;;;;15.97;15.23;;;12.70;99.90;;;;;;4996003;28;20180;-77
2023/05/10 03:32:31;;;;;;;37.90;36.13;;;12.70;99.90;;;;;;4997443;28;20176;-77
2023/05/10 03:34:57;;;;;;;50.30;47.53;;;12.70;99.90;;;;;;4990192;28;20196;-76
2023/05/10 03:37:23;;;;;;;51.33;48.73;;;12.70;99.90;;;;;;4991345;28;20264;-77
2023/05/10 03:39:48;;;;;;;41.83;39.87;;;12.70;99.90;;;;;;4991103;28;20199;-77
2023/05/10 03:42:14;;;;;;;40.57;38.67;;;12.70;99.90;;;;;;4978707;28;20272;-78
2023/05/10 03:44:40;;;;;;;37.33;35.60;;;12.80;99.90;;;;;;4970143;28;20185;-78
2023/05/10 03:47:07;;;;;;;48.80;46.47;;;12.80;99.90;;;;;;4978495;28;20279;-78
2023/05/10 03:49:33;;;;;;;68.17;64.83;;;12.80;99.90;;;;;;4976656;28;20189;-78
2023/05/10 03:51:59;;;;;;;86.27;82.17;;;12.70;99.90;;;;;;4976894;28;20189;-77
2023/05/10 03:54:25;;;;;;;41.97;39.77;;;12.70;99.90;;;;;;4980357;28;20642;-78
2023/05/10 03:56:50;;;;;;;26.57;25.40;;;12.70;99.90;;;;;;4996572;28;20200;-78
2023/05/10 03:59:16;;;;;;;8.17;7.87;;;12.70;99.90;;;;;;4997150;28;20199;-78
2023/05/10 04:01:42;;;;;;;5.53;5.30;;;12.70;99.90;;;;;;4991867;28;20180;-77
2023/05/10 04:04:08;;;;;;;4.33;4.07;;;12.70;99.90;;;;;;4972271;28;20224;-77
2023/05/10 04:06:33;;;;;;;5.63;4.23;;;12.70;99.90;;;;;;4978216;28;20300;-78
2023/05/10 04:09:03;;;;;;;12.90;12.30;;;12.70;99.90;;;;;;4977896;28;20557;-77
2023/05/10 04:11:29;;;;;;;68.83;65.23;;;12.80;99.90;;;;;;4980964;28;20185;-77
2023/05/10 04:13:55;;;;;;;73.67;69.93;;;12.80;99.90;;;;;;5003209;28;20289;-77
2023/05/10 04:16:21;;;;;;;57.13;54.00;;;12.80;99.90;;;;;;4989799;28;20232;-78
2023/05/10 04:18:46;;;;;;;63.23;60.13;;;12.90;99.90;;;;;;4979365;28;20204;-77
2023/05/10 04:21:16;;;;;;;76.00;72.37;;;12.90;99.90;;;;;;4974081;28;20285;-75
2023/05/10 04:23:41;;;;;;;47.50;45.27;;;12.90;99.90;;;;;;4973808;28;20177;-75
2023/05/10 04:26:07;;;;;;;17.77;16.77;;;13.00;99.90;;;;;;4974193;28;20608;-75
2023/05/10 04:28:33;;;;;;;5.27;4.97;;;13.10;99.90;;;;;;4987672;28;20188;-74
2023/05/10 04:31:05;;;;;;;5.00;4.70;;;13.10;99.90;;;;;;4996684;28;20247;-75
2023/05/10 04:33:32;;;;;;;4.47;4.27;;;13.10;99.90;;;;;;4992644;28;20184;-75
2023/05/10 04:35:58;;;;;;;4.73;4.47;;;13.20;99.90;;;;;;4994581;28;20232;-75
2023/05/10 04:38:24;;;;;;;4.80;4.60;;;13.20;99.90;;;;;;4983328;28;20208;-75
2023/05/10 04:40:50;;;;;;;5.00;4.77;;;13.20;99.90;;;;;;4997595;28;20237;-75
2023/05/10 04:43:16;;;;;;;21.97;20.90;;;13.30;99.90;;;;;;4979013;28;20676;-76
2023/05/10 04:45:42;;;;;;;16.87;15.97;;;13.40;99.90;;;;;;4974419;28;20198;-75
2023/05/10 04:48:07;;;;;;;13.20;12.10;;;13.40;99.90;;;;;;4973982;28;20181;-74
2023/05/10 04:50:33;;;;;;;60.17;56.60;;;13.50;99.90;;;;;;4972862;28;20574;-74
2023/05/10 04:52:59;;;;;;;116.73;110.53;;;13.60;99.90;;;;;;4974129;28;20188;-74
2023/05/10 04:55:26;;;;;;;128.53;121.97;;;13.60;99.90;;;;;;4972614;28;20671;-73
2023/05/10 04:57:52;;;;;;;138.70;131.60;;;13.70;99.90;;;;;;4990504;28;20652;-73
2023/05/10 05:00:18;;;;;;;53.87;51.07;;;13.80;99.90;;;;;;4992279;28;20648;-73
2023/05/10 05:02:45;;;;;;;15.07;14.33;;;13.80;99.90;;;;;;4993329;28;20181;-73
2023/05/10 05:05:12;;;;;;;28.57;27.03;;;13.80;99.90;;;;;;4993231;28;20212;-73
2023/05/10 05:07:40;;;;;;;39.13;36.70;;;13.90;99.90;;;;;;4974707;28;20259;-73
2023/05/10 05:10:08;;;;;;;55.97;53.07;;;13.90;99.90;;;;;;4973609;28;20216;-74
2023/05/10 05:12:34;;;;;;;59.90;56.77;;;14.10;99.90;;;;;;4972662;28;20181;-74
2023/05/10 05:15:00;;;;;;;76.40;72.33;;;14.10;99.90;;;;;;4973493;28;20550;-75
2023/05/10 05:17:26;;;;;;;49.07;46.60;;;14.20;99.90;;;;;;4988627;28;20241;-73
2023/05/10 05:19:52;;;;;;;31.10;29.50;;;14.20;99.90;;;;;;4992925;28;20664;-75
2023/05/10 05:22:19;;;;;;;20.93;19.83;;;14.30;99.90;;;;;;4992914;28;20192;-74
2023/05/10 05:24:45;;;;;;;8.37;7.97;;;14.30;99.90;;;;;;4992708;28;20181;-74
2023/05/10 05:27:11;;;;;;;5.43;5.13;;;14.30;99.90;;;;;;4977497;28;20213;-74
2023/05/10 05:29:37;;;;;;;7.83;7.27;;;14.30;99.90;;;;;;4972408;28;20192;-74
2023/05/10 05:32:02;;;;;;;7.83;7.50;;;14.40;99.90;;;;;;4973293;28;20185;-74
2023/05/10 05:34:28;;;;;;;12.23;11.40;;;14.40;99.90;;;;;;4973295;28;20577;-74
2023/05/10 05:36:54;;;;;;;13.77;13.07;;;14.50;99.90;;;;;;4982265;28;20794;-74
2023/05/10 05:39:20;;;;;;;8.93;8.43;;;14.60;99.90;;;;;;4992580;28;20633;-74
2023/05/10 05:41:46;;;;;;;5.03;4.67;;;14.70;99.90;;;;;;4991996;28;20197;-74
2023/05/10 05:44:11;;;;;;;4.43;4.23;;;14.70;99.90;;;;;;4992630;28;20270;-74
2023/05/10 05:46:37;;;;;;;5.73;5.20;;;14.80;99.90;;;;;;4984014;28;20220;-74
2023/05/10 05:49:03;;;;;;;11.90;11.33;;;14.90;99.90;;;;;;4973105;28;20176;-73
2023/05/10 05:51:29;;;;;;;50.10;47.53;;;15.00;99.90;;;;;;4973294;28;20653;-75
2023/05/10 05:53:55;;;;;;;97.33;92.53;;;15.00;99.90;;;;;;4955792;28;20180;-75
2023/05/10 05:56:24;;;;;;;94.97;90.33;;;15.00;99.90;;;;;;4979285;28;20231;-74
2023/05/10 05:58:52;;;;;;;58.80;55.87;;;15.10;99.90;;;;;;4991906;28;20563;-75
2023/05/10 06:01:18;;;;;;;30.10;28.47;;;15.10;99.90;;;;;;4992266;28;20195;-75
2023/05/10 06:03:44;;;;;;;15.53;14.63;;;15.20;99.90;;;;;;4992790;28;20544;-74
2023/05/10 06:06:10;;;;;;;14.70;14.00;;;15.20;99.90;;;;;;4986887;28;20208;-75
2023/05/10 06:08:36;;;;;;;11.93;11.20;;;15.40;99.90;;;;;;4971386;28;20564;-75
2023/05/10 06:11:03;;;;;;;10.67;10.17;;;15.40;99.90;;;;;;4972788;28;20531;-75
2023/05/10 06:13:31;;;;;;;9.90;9.40;;;15.50;99.90;;;;;;4971925;28;20177;-74
2023/05/10 06:16:02;;;;;;;9.67;9.17;;;15.50;99.90;;;;;;4973641;28;20661;-75
2023/05/10 06:18:27;;;;;;;8.07;7.40;;;15.60;99.90;;;;;;4991206;28;20192;-75
2023/05/10 06:20:53;;;;;;;7.23;6.83;;;15.60;99.90;;;;;;4992017;28;20263;-75
2023/05/10 06:23:19;;;;;;;8.23;7.80;;;15.60;99.90;;;;;;4992148;28;20184;-75
2023/05/10 06:25:45;;;;;;;7.30;7.00;;;15.40;99.90;;;;;;4991099;28;20220;-75
2023/05/10 06:28:11;;;;;;;5.10;4.80;;;15.30;99.90;;;;;;4972563;28;20188;-75
2023/05/10 06:30:36;;;;;;;6.67;6.30;;;15.30;99.90;;;;;;4972852;28;20675;-75
2023/05/10 06:33:03;;;;;;;8.73;8.33;;;15.30;99.90;;;;;;4995259;28;20197;-75
2023/05/10 06:35:29;;;;;;;7.73;7.33;;;15.40;99.90;;;;;;4976879;28;20215;-75
2023/05/10 06:37:55;;;;;;;5.87;5.67;;;15.40;99.90;;;;;;4988558;28;20648;-75
2023/05/10 06:40:20;;;;;;;7.07;6.70;;;15.50;99.90;;;;;;4990707;28;20184;-75
2023/05/10 06:42:47;;;;;;;6.53;5.63;;;15.50;99.90;;;;;;4990776;28;20188;-75
2023/05/10 06:45:14;;;;;;;6.63;6.33;;;15.60;99.90;;;;;;4991971;28;20173;-75
2023/05/10 06:47:41;;;;;;;22.60;21.60;;;15.60;99.90;;;;;;4975591;28;20264;-75
2023/05/10 06:50:08;;;;;;;26.10;24.77;;;15.70;99.90;;;;;;4971169;28;20185;-75
2023/05/10 06:52:34;;;;;;;20.73;19.67;;;15.70;99.90;;;;;;4972484;28;20181;-75
2023/05/10 06:55:00;;;;;;;21.03;20.03;;;15.70;99.90;;;;;;4976098;28;20522;-75
2023/05/10 06:57:26;;;;;;;24.53;23.27;;;15.60;99.90;;;;;;4976111;28;20208;-75
2023/05/10 06:59:52;;;;;;;26.40;24.83;;;15.50;99.90;;;;;;4974857;28;20185;-74
2023/05/10 07:02:18;;;;;;;24.27;23.17;;;15.50;99.90;;;;;;4975003;28;20185;-74
2023/05/10 07:04:44;;;;;;;26.40;25.07;;;15.50;99.90;;;;;;4976005;28;20177;-75
2023/05/10 07:07:10;;;;;;;22.63;21.50;;;15.40;99.90;;;;;;4985249;28;20211;-74
2023/05/10 07:09:35;;;;;;;19.77;18.67;;;15.40;99.90;;;;;;4995388;28;20682;-74
2023/05/10 07:12:01;;;;;;;26.20;24.70;;;15.30;99.90;;;;;;4995508;28;20181;-74
2023/05/10 07:14:27;;;;;;;30.63;29.23;;;15.30;99.90;;;;;;4994147;28;20188;-74
2023/05/10 07:16:53;;;;;;;30.80;29.40;;;15.30;99.90;;;;;;4985952;28;20217;-75
2023/05/10 07:19:19;;;;;;;13.90;12.80;;;15.20;99.90;;;;;;4976325;28;20206;-74
2023/05/10 07:21:45;;;;;;;8.87;8.47;;;15.30;99.90;;;;;;4976267;28;20185;-74
2023/05/10 07:24:11;;;;;;;10.80;10.30;;;15.50;99.90;;;;;;4975705;28;20184;-74
2023/05/10 07:26:37;;;;;;;30.83;29.33;;;15.90;99.90;;;;;;4981111;28;20216;-74
2023/05/10 07:29:02;;;;;;;18.93;17.97;;;16.00;99.90;;;;;;4994370;28;20185;-74
2023/05/10 07:31:28;;;;;;;6.63;6.20;;;16.20;99.90;;;;;;4995068;28;20180;-74
2023/05/10 07:33:54;;;;;;;9.07;8.43;;;16.50;99.90;;;;;;4995053;28;20180;-75
2023/05/10 07:36:20;;;;;;;12.73;12.07;;;16.70;99.90;;;;;;4991060;28;20597;-74
2023/05/10 07:38:46;;;;;;;27.17;25.93;;;16.80;99.90;;;;;;4974144;28;20195;-74
2023/05/10 07:41:12;;;;;;;22.33;21.33;;;16.90;99.90;;;;;;4975451;28;20189;-74
2023/05/10 07:43:38;;;;;;;21.63;20.20;;;16.80;99.90;;;;;;4975393;28;20247;-74
2023/05/10 07:46:03;;;;;;;22.97;21.93;;;16.70;99.90;;;;;;4975963;28;20220;-74
2023/05/10 07:48:29;;;;;;;27.47;26.07;;;16.60;99.90;;;;;;4994295;28;20656;-74
2023/05/10 07:50:55;;;;;;;45.13;42.97;;;16.60;99.90;;;;;;4994830;28;20184;-74
2023/05/10 07:53:21;;;;;;;37.37;35.63;;;16.80;99.90;;;;;;4994645;28;20176;-74
2023/05/10 07:55:51;;;;;;;25.43;24.10;;;16.90;99.90;;;;;;4981397;28;20201;-74
2023/05/10 07:58:17;;;;;;;14.87;13.90;;;17.00;99.90;;;;;;4974962;28;20193;-74
2023/05/10 08:00:43;;;;;;;10.83;10.33;;;17.10;99.90;;;;;;4974981;28;20184;-74
2023/05/10 08:03:09;;;;;;;9.93;9.23;;;17.30;99.90;;;;;;4974007;28;20268;-74
2023/05/10 08:05:35;;;;;;;7.17;6.87;;;17.50;99.90;;;;;;4984015;28;20204;-74
2023/05/10 08:08:00;;;;;;;7.23;6.80;;;17.60;99.90;;;;;;4992915;28;20235;-74
2023/05/10 08:10:26;;;;;;;4.83;4.73;;;17.70;99.90;;;;;;4994435;28;20272;-74
2023/05/10 08:12:52;;;;;;;4.03;3.93;;;17.60;99.90;;;;;;4994325;28;20610;-74
2023/05/10 08:15:18;;;;;;;4.70;4.50;;;17.50;99.90;;;;;;4986283;28;20180;-74
2023/05/10 08:17:43;;;;;;;4.07;3.87;;;17.60;99.90;;;;;;4974422;28;20189;-74
2023/05/10 08:20:09;;;;;;;3.63;3.53;;;17.50;99.90;;;;;;4974897;28;20185;-74
2023/05/10 08:22:35;;;;;;;4.10;3.57;;;17.60;99.90;;;;;;4978780;28;20276;-74
2023/05/10 08:25:01;;;;;;;3.80;3.60;;;17.60;99.90;;;;;;4999815;28;20215;-74
2023/05/10 08:27:26;;;;;;;4.03;3.87;;;17.60;99.90;;;;;;4993536;28;20220;-74
2023/05/10 08:29:52;;;;;;;3.87;3.67;;;17.50;99.90;;;;;;4993909;28;20184;-74
2023/05/10 08:32:18;;;;;;;3.50;3.40;;;17.50;99.90;;;;;;4993944;28;20263;-74
2023/05/10 08:34:44;;;;;;;5.20;5.00;;;17.70;99.90;;;;;;4991009;28;20187;-74
2023/05/10 08:37:12;;;;;;;9.03;8.63;;;17.70;99.90;;;;;;4972980;28;20770;-74
2023/05/10 08:39:38;;;;;;;9.17;8.67;;;17.80;99.90;;;;;;4974355;28;20282;-73
2023/05/10 08:42:05;;;;;;;9.33;8.93;;;17.80;99.90;;;;;;4973202;28;20228;-74
2023/05/10 08:44:36;;;;;;;7.00;6.60;;;17.70;99.90;;;;;;4974720;28;20268;-74
2023/05/10 08:47:08;;;;;;;8.43;7.93;;;17.50;99.90;;;;;;4992065;28;20243;-74
2023/05/10 08:49:34;;;;;;;8.97;8.27;;;17.30;99.90;;;;;;4992414;28;20246;-74
2023/05/10 08:52:04;;;;;;;5.53;5.23;;;17.30;99.90;;;;;;4993716;28;20184;-74
2023/05/10 08:54:31;;;;;;;4.50;4.20;;;17.20;99.90;;;;;;4992831;28;20184;-73
2023/05/10 08:56:57;;;;;;;8.20;7.80;;;16.80;99.90;;;;;;4973540;28;20230;-73
2023/05/10 08:59:23;;;;;;;3.80;3.60;;;16.50;99.90;;;;;;4974050;28;20742;-74
2023/05/10 09:01:50;;;;;;;4.10;3.93;;;16.30;99.90;;;;;;4972769;28;20724;-73
2023/05/10 09:04:16;;;;;;;3.70;3.50;;;16.30;99.90;;;;;;4974111;28;20189;-74
2023/05/10 09:06:41;;;;;;;4.47;4.17;;;16.20;99.90;;;;;;4991313;28;20722;-74
2023/05/10 09:09:07;;;;;;;3.63;3.33;;;16.20;99.90;;;;;;4992806;28;20187;-74
2023/05/10 09:11:33;;;;;;;3.27;3.17;;;16.20;99.90;;;;;;4993360;28;20187;-74
2023/05/10 09:14:00;;;;;;;3.93;3.63;;;16.20;99.90;;;;;;4993165;28;20225;-74
2023/05/10 09:16:26;;;;;;;3.80;3.60;;;16.30;99.90;;;;;;5006611;23;20299;-78
2023/05/10 09:18:52;;;;;;;3.53;3.43;;;16.50;99.90;;;;;;4999768;28;20185;-78
2023/05/10 09:21:20;;;;;;;7.13;3.77;;;16.70;99.90;;;;;;5001533;28;20211;-78
2023/05/10 09:23:46;;;;;;;5.27;5.07;;;16.90;99.90;;;;;;5002096;28;20265;-78
2023/05/10 09:26:12;;;;;;;4.43;4.23;;;17.10;99.90;;;;;;4998121;28;20216;-79
2023/05/10 09:28:58;;;;;;;4.13;3.83;;;17.20;99.90;;;;;;4998457;28;20215;-79
2023/05/10 09:31:42;;;;;;;4.67;4.50;;;17.20;99.90;;;;;;4997760;28;20189;-79
2023/05/10 09:34:08;;;;;;;11.20;10.73;;;17.10;99.90;;;;;;4998480;28;20252;-79
2023/05/10 09:36:33;;;;;;;5.30;5.00;;;17.00;99.90;;;;;;4995345;28;20228;-80
2023/05/10 09:38:59;;;;;;;5.17;4.87;;;16.90;99.90;;;;;;4995876;28;20214;-79
2023/05/10 09:41:25;;;;;;;9.77;9.17;;;17.00;99.90;;;;;;4994660;28;20724;-79
2023/05/10 09:43:55;;;;;;;12.30;11.80;;;17.10;99.90;;;;;;4999244;28;20230;-78
2023/05/10 09:46:22;;;;;;;11.40;10.77;;;17.10;99.90;;;;;;4988663;28;20259;-78
2023/05/10 09:48:48;;;;;;;10.17;9.23;;;17.20;99.90;;;;;;4976434;28;20181;-78
2023/05/10 09:51:26;;;;;;;9.33;9.03;;;17.30;99.90;;;;;;4981015;28;20200;-78
2023/05/10 09:54:13;;;;;;;7.00;6.70;;;17.40;99.90;;;;;;4975524;28;20216;-80
2023/05/10 09:56:40;;;;;;;5.90;5.60;;;17.70;99.90;;;;;;4991462;28;20235;-79
2023/05/10 09:59:10;;;;;;;7.13;6.90;;;18.10;99.90;;;;;;4995091;28;20592;-80
2023/05/10 10:01:37;;;;;;;46.87;44.77;;;18.40;99.90;;;;;;4995883;28;20184;-80
2023/05/10 10:04:05;;;;;;;49.73;47.27;;;18.40;99.90;;;;;;4994266;28;20870;-80
2023/05/10 10:06:38;;;;;;;64.97;61.97;;;18.50;99.90;;;;;;4979546;28;20274;-80
2023/05/10 10:09:06;;;;;;;73.17;69.67;;;18.50;99.90;;;;;;4975057;28;20208;-79
2023/05/10 10:11:33;;;;;;;33.97;32.33;;;18.60;99.90;;;;;;4974257;28;20183;-78
2023/05/10 10:13:59;;;;;;;36.93;35.20;;;18.50;99.90;;;;;;4975015;28;20657;-79
2023/05/10 10:16:30;;;;;;;64.03;61.07;;;18.10;99.90;;;;;;4986471;28;20231;-79
2023/05/10 10:18:56;;;;;;;71.00;67.43;;;17.90;99.90;;;;;;4993518;28;20279;-78
2023/05/10 10:21:23;;;;;;;77.80;74.03;;;18.10;99.90;;;;;;4994198;28;20235;-79
2023/05/10 10:23:50;;;;;;;58.77;56.03;;;18.20;99.90;;;;;;4993834;28;20218;-78
2023/05/10 10:26:17;;;;;;;67.43;64.23;;;18.40;99.90;;;;;;4981427;28;20223;-78
2023/05/10 10:29:07;;;;;;;13.47;12.63;;;18.50;99.90;;;;;;4974467;28;20185;-78
2023/05/10 10:31:41;;;;;;;13.30;12.70;;;18.70;99.90;;;;;;4972870;28;20605;-76
2023/05/10 10:34:16;;;;;;;6.73;6.53;;;18.60;99.90;;;;;;4974114;28;20185;-78
2023/05/10 10:36:46;;;;;;;10.20;9.60;;;18.60;99.90;;;;;;4989017;28;20592;-78
2023/05/10 10:39:13;;;;;;;12.40;11.80;;;18.50;99.90;;;;;;4994895;28;20185;-77
2023/05/10 10:41:48;;;;;;;11.30;10.53;;;18.30;99.90;;;;;;4997399;28;20180;-79
2023/05/10 10:44:36;;;;;;;19.67;18.57;;;18.10;99.90;;;;;;4995358;28;20193;-77
2023/05/10 10:47:08;;;;;;;12.73;12.20;;;17.90;99.90;;;;;;4977757;28;20213;-78
2023/05/10 10:49:42;;;;;;;31.73;30.00;;;17.80;99.90;;;;;;4974970;28;20184;-78
2023/05/10 10:52:26;;;;;;;39.17;37.23;;;17.70;99.90;;;;;;4973910;28;20587;-79
2023/05/10 10:55:02;;;;;;;58.90;56.17;;;17.60;99.90;;;;;;4975007;28;20472;-78
2023/05/10 10:57:32;;;;;;;70.07;66.50;;;17.50;99.90;;;;;;4994621;28;20853;-78
2023/05/10 11:00:20;;;;;;;51.80;49.33;;;17.30;99.90;;;;;;4993655;28;20548;-79
2023/05/10 11:02:54;;;;;;;70.47;67.00;;;17.10;99.90;;;;;;4999255;28;20173;-78
2023/05/10 11:05:23;;;;;;;13.57;12.97;;;16.80;99.90;;;;;;4993335;28;20213;-78
2023/05/10 11:08:00;;;;;;;6.00;3.73;;;16.80;99.90;;;;;;4978615;28;20217;-78
2023/05/10 11:10:27;;;;;;;8.03;7.60;;;16.90;99.90;;;;;;4975082;28;20267;-79
2023/05/10 11:13:04;;;;;;;6.57;6.37;;;16.80;99.90;;;;;;4974981;28;20188;-79
2023/05/10 11:15:34;;;;;;;6.77;6.47;;;16.80;99.90;;;;;;4983509;28;20183;-77
2023/05/10 11:18:16;;;;;;;6.67;6.27;;;17.00;99.90;;;;;;5002035;28;20212;-77
2023/05/10 11:20:42;;;;;;;13.40;12.67;;;17.00;99.90;;;;;;4999158;28;20644;-78
2023/05/10 11:23:15;;;;;;;10.80;10.27;;;17.10;99.90;;;;;;4994356;28;20184;-78
2023/05/10 11:25:45;;;;;;;21.50;20.53;;;17.30;99.90;;;;;;4988258;28;20196;-78
2023/05/10 11:28:12;;;;;;;60.10;57.20;;;17.60;99.90;;;;;;4973285;28;20609;-78
2023/05/10 11:30:43;;;;;;;48.17;45.87;;;17.70;99.90;;;;;;4974997;28;20249;-78
2023/05/10 11:33:10;;;;;;;61.00;58.13;;;17.60;99.90;;;;;;4973292;28;20220;-78
2023/05/10 11:35:39;;;;;;;54.23;51.63;;;17.70;99.90;;;;;;4990002;28;20187;-77
2023/05/10 11:38:10;;;;;;;66.60;63.43;;;18.00;99.90;;;;;;4993108;28;20180;-78
2023/05/10 11:40:37;;;;;;;13.00;12.33;;;18.40;99.90;;;;;;4996440;28;20190;-77
2023/05/10 11:43:04;;;;;;;12.63;12.10;;;18.40;99.90;;;;;;4996224;28;20192;-79
2023/05/10 11:45:33;;;;;;;11.20;10.70;;;18.50;99.90;;;;;;4979494;28;20184;-76
2023/05/10 11:47:59;;;;;;;8.30;7.90;;;18.50;99.90;;;;;;4976778;28;20693;-78
2023/05/10 11:50:25;;;;;;;16.47;15.67;;;18.20;99.90;;;;;;4981519;28;20189;-78
2023/05/10 11:53:00;;;;;;;18.57;17.67;;;18.20;99.90;;;;;;4984601;28;20181;-77
2023/05/10 11:55:26;;;;;;;15.77;15.03;;;18.20;99.90;;;;;;4995364;28;20180;-78
2023/05/10 11:57:53;;;;;;;17.73;16.93;;;18.10;99.90;;;;;;5002451;28;20204;-78
2023/05/10 12:00:19;;;;;;;21.63;20.50;;;17.70;99.90;;;;;;5004416;28;20195;-77
2023/05/10 12:02:45;;;;;;;22.13;21.03;;;17.50;99.90;;;;;;5006385;28;20184;-77
2023/05/10 12:05:11;;;;;;;16.30;15.33;;;17.40;99.90;;;;;;4992643;28;20199;-77
2023/05/10 12:07:37;;;;;;;8.73;8.43;;;17.30;99.90;;;;;;4985662;28;20205;-79
2023/05/10 12:10:08;;;;;;;9.80;9.10;;;17.30;99.90;;;;;;4977032;28;20185;-77
2023/05/10 12:12:42;;;;;;;8.07;7.57;;;17.30;99.90;;;;;;4974993;28;20646;-77
2023/05/10 12:15:22;;;;;;;12.07;11.20;;;17.20;99.90;;;;;;4988983;28;20194;-79
2023/05/10 12:17:48;;;;;;;11.17;10.67;;;17.30;99.90;;;;;;4998451;28;20350;-79
2023/05/10 12:20:22;;;;;;;10.90;10.40;;;17.30;99.90;;;;;;4996638;28;20235;-77
2023/05/10 12:22:53;;;;;;;9.87;9.37;;;17.30;99.90;;;;;;5005932;28;20184;-77
2023/05/10 12:25:21;;;;;;;14.67;14.00;;;17.30;99.90;;;;;;4988921;28;20181;-77
2023/05/10 12:27:55;;;;;;;14.53;13.73;;;17.40;99.90;;;;;;4981612;28;20223;-76
2023/05/10 12:30:29;;;;;;;16.70;15.90;;;17.30;99.90;;;;;;4983510;28;20641;-78
2023/05/10 12:33:11;;;;;;;33.97;32.40;;;17.30;99.90;;;;;;4975136;28;20221;-78
2023/05/10 12:35:51;;;;;;;33.67;32.10;;;17.30;99.90;;;;;;4990547;28;20184;-78
2023/05/10 12:38:26;;;;;;;15.20;14.27;;;17.30;99.90;;;;;;4994215;28;20186;-78
2023/05/10 12:40:52;;;;;;;7.83;7.23;;;17.10;99.90;;;;;;4997972;28;20183;-77
2023/05/10 12:43:18;;;;;;;8.63;8.23;;;16.90;99.90;;;;;;5001509;28;20173;-78
2023/05/10 12:45:47;;;;;;;14.10;13.37;;;16.70;99.90;;;;;;4985381;28;20185;-77
2023/05/10 12:48:13;;;;;;;10.77;10.27;;;16.80;99.90;;;;;;4974176;28;20546;-78
2023/05/10 12:50:39;;;;;;;9.93;9.50;;;16.80;99.90;;;;;;4974225;28;20185;-78
2023/05/10 12:53:05;;;;;;;24.17;23.03;;;16.80;99.90;;;;;;4975832;28;20200;-77
2023/05/10 12:55:31;;;;;;;47.17;44.97;;;16.70;99.90;;;;;;4976446;28;20196;-78
2023/05/10 12:57:59;;;;;;;46.07;43.87;;;16.80;99.90;;;;;;4974771;28;20209;-77
2023/05/10 13:00:25;;;;;;;47.87;45.67;;;16.80;99.90;;;;;;4973361;28;20217;-77
2023/05/10 13:02:50;;;;;;;44.90;42.60;;;16.90;99.90;;;;;;4974460;28;20220;-78
2023/05/10 13:05:16;;;;;;;33.40;31.73;;;16.80;99.90;;;;;;4986070;28;20583;-77
2023/05/10 13:07:43;;;;;;;20.57;19.37;;;16.80;99.90;;;;;;4993601;28;20224;-77
2023/05/10 13:10:10;;;;;;;11.23;10.43;;;17.00;99.90;;;;;;4996941;28;20184;-77
2023/05/10 13:12:36;;;;;;;5.93;5.63;;;17.20;99.90;;;;;;4993374;28;20180;-78
2023/05/10 13:15:02;;;;;;;29.20;27.87;;;17.50;99.90;;;;;;4984805;28;20177;-78
2023/05/10 13:17:29;;;;;;;43.47;41.20;;;17.80;99.90;;;;;;4973851;28;20221;-77
2023/05/10 13:19:55;;;;;;;29.33;27.70;;;17.90;99.90;;;;;;4975144;28;20653;-77
2023/05/10 13:22:20;;;;;;;43.33;40.90;;;18.00;99.90;;;;;;4974726;28;20200;-77
2023/05/10 13:24:46;;;;;;;30.63;29.07;;;18.10;99.90;;;;;;4982545;28;20184;-78
2023/05/10 13:27:12;;;;;;;51.87;49.20;;;18.40;99.90;;;;;;4995760;28;20582;-77
2023/05/10 13:29:37;;;;;;;53.73;50.83;;;18.50;99.90;;;;;;5001905;28;20183;-77
2023/05/10 13:32:03;;;;;;;21.93;20.60;;;18.50;99.90;;;;;;5002443;28;20208;-77
2023/05/10 13:34:29;;;;;;;9.93;9.23;;;18.40;99.90;;;;;;4988552;28;20181;-77
2023/05/10 13:36:56;;;;;;;9.90;9.40;;;18.20;99.90;;;;;;4973039;28;20724;-79
2023/05/10 13:39:22;;;;;;;11.23;10.73;;;18.10;99.90;;;;;;4973902;28;20200;-78
2023/05/10 13:41:48;;;;;;;6.83;6.43;;;17.80;99.90;;;;;;4974641;28;20537;-79
2023/05/10 13:44:14;;;;;;;5.03;4.73;;;17.80;99.90;;;;;;4976869;28;20208;-78
2023/05/10 13:46:41;;;;;;;5.73;5.40;;;17.70;99.90;;;;;;4994899;28;20223;-79
2023/05/10 13:49:09;;;;;;;8.37;7.83;;;17.70;99.90;;;;;;4993266;28;20264;-78
2023/05/10 13:51:35;;;;;;;15.50;14.77;;;17.70;99.90;;;;;;4993379;28;20215;-78
2023/05/10 13:54:02;;;;;;;21.20;20.03;;;17.60;99.90;;;;;;4992941;28;20250;-78
2023/05/10 13:56:28;;;;;;;8.80;8.30;;;17.70;99.90;;;;;;4973738;28;20205;-77
2023/05/10 13:58:54;;;;;;;7.57;7.07;;;17.80;99.90;;;;;;4972818;28;20195;-77
2023/05/10 14:01:19;;;;;;;7.97;7.37;;;17.80;99.90;;;;;;4977698;28;20249;-77
2023/05/10 14:03:45;;;;;;;6.00;5.70;;;17.80;99.90;;;;;;4978204;28;20185;-78
2023/05/10 14:06:11;;;;;;;5.10;4.83;;;17.60;99.90;;;;;;4973694;28;20205;-77
2023/05/10 14:08:37;;;;;;;6.77;6.37;;;17.60;99.90;;;;;;4972813;28;20201;-77
2023/05/10 14:11:03;;;;;;;13.60;13.00;;;17.60;99.90;;;;;;4972850;28;20212;-78
2023/05/10 14:13:28;;;;;;;27.80;26.40;;;17.50;99.90;;;;;;4972739;28;20245;-77
2023/05/10 14:15:55;;;;;;;25.60;24.40;;;17.50;99.90;;;;;;4987250;28;20184;-77
2023/05/10 14:18:20;;;;;;;38.43;36.63;;;17.50;99.90;;;;;;4991006;28;20188;-77
2023/05/10 14:20:46;;;;;;;12.47;11.77;;;17.50;99.90;;;;;;4997746;28;20176;-76
2023/05/10 14:23:12;;;;;;;18.43;17.37;;;17.60;99.90;;;;;;4996154;28;20184;-77
2023/05/10 14:25:40;;;;;;;25.67;24.10;;;17.80;99.90;;;;;;4985414;28;20188;-79
2023/05/10 14:28:06;;;;;;;12.43;11.30;;;18.20;99.90;;;;;;4973207;28;20210;-78
2023/05/10 14:30:33;;;;;;;9.87;9.33;;;18.30;99.90;;;;;;4972777;28;20708;-78
2023/05/10 14:33:01;;;;;;;23.27;21.97;;;18.50;99.90;;;;;;4976159;28;20618;-77
2023/05/10 14:35:27;;;;;;;24.97;23.50;;;18.70;99.90;;;;;;4992643;28;20208;-77
2023/05/10 14:37:54;;;;;;;10.83;10.23;;;18.70;99.90;;;;;;5000771;28;20212;-77
2023/05/10 14:40:20;;;;;;;17.67;16.77;;;18.70;99.90;;;;;;5005015;28;20268;-78
2023/05/10 14:42:46;;;;;;;10.87;10.20;;;18.80;99.90;;;;;;5003562;28;20191;-77
2023/05/10 14:45:12;;;;;;;6.37;5.90;;;18.90;99.90;;;;;;4993951;28;20177;-77
2023/05/10 14:47:38;;;;;;;5.00;4.70;;;18.90;99.90;;;;;;4976207;28;20236;-78
2023/05/10 14:50:04;;;;;;;5.77;5.47;;;18.90;99.90;;;;;;4973533;28;20708;-78
2023/05/10 14:52:31;;;;;;;7.20;6.80;;;18.90;99.90;;;;;;4974392;28;20188;-78
2023/05/10 14:54:58;;;;;;;6.07;5.67;;;18.60;99.90;;;;;;4980484;28;20659;-77
2023/05/10 14:57:24;;;;;;;5.27;4.77;;;18.40;99.90;;;;;;4990976;28;20230;-78
2023/05/10 14:59:50;;;;;;;8.50;8.00;;;18.40;99.90;;;;;;4993112;28;20207;-77
2023/05/10 15:02:16;;;;;;;6.43;6.03;;;18.20;99.90;;;;;;5003794;28;20188;-76
2023/05/10 15:04:41;;;;;;;10.73;10.13;;;18.20;99.90;;;;;;4994321;28;20637;-77
2023/05/10 15:07:07;;;;;;;10.60;9.87;;;18.20;99.90;;;;;;4979277;28;20307;-76
2023/05/10 15:09:33;;;;;;;11.67;11.07;;;18.20;99.90;;;;;;4981537;28;20633;-77
2023/05/10 15:11:59;;;;;;;23.63;22.13;;;18.10;99.90;;;;;;4974000;28;20212;-77
2023/05/10 15:14:25;;;;;;;25.03;23.73;;;18.10;99.90;;;;;;4980359;28;20656;-78
2023/05/10 15:16:50;;;;;;;21.00;19.93;;;18.20;99.90;;;;;;4998819;28;20220;-78
2023/05/10 15:19:16;;;;;;;8.23;7.53;;;18.20;99.90;;;;;;4997968;28;20184;-78
2023/05/10 15:21:44;;;;;;;9.60;8.70;;;18.20;99.90;;;;;;4997842;28;20188;-77
2023/05/10 15:24:10;;;;;;;12.20;11.60;;;18.20;99.90;;;;;;4996562;28;20277;-78
2023/05/10 15:26:35;;;;;;;13.93;13.23;;;18.20;99.90;;;;;;4976397;28;20302;-78
2023/05/10 15:29:02;;;;;;;8.63;8.17;;;18.20;99.90;;;;;;4976134;28;20711;-79
2023/05/10 15:31:28;;;;;;;9.67;9.10;;;18.40;99.90;;;;;;4983057;28;20555;-79
2023/05/10 15:34:00;;;;;;;12.53;11.67;;;18.40;99.90;;;;;;4983882;28;20184;-79
2023/05/10 15:36:25;;;;;;;24.93;23.53;;;18.30;99.90;;;;;;4998241;28;20204;-79
2023/05/10 15:38:52;;;;;;;26.73;25.47;;;18.50;99.90;;;;;;4996421;28;20699;-79